createdAt,value
2019-02-21T00:02:14.310Z,10.23
2019-02-21T00:04:43.386Z,10.83
2019-02-21T00:07:12.459Z,10.33
2019-02-21T00:09:41.530Z,12.10
2019-02-21T00:12:10.605Z,10.73
2019-02-21T00:14:39.683Z,11.83
2019-02-21T00:17:08.751Z,10.83
2019-02-21T00:19:37.827Z,12.33
2019-02-21T00:22:06.899Z,12.60
2019-02-21T00:24:35.979Z,12.23
2019-02-21T00:27:05.038Z,10.93
2019-02-21T00:29:34.110Z,11.03
2019-02-21T00:32:03.515Z,11.73
2019-02-21T00:34:32.592Z,11.07
2019-02-21T00:37:01.659Z,11.20
2019-02-21T00:39:30.773Z,11.00
2019-02-21T00:41:59.879Z,11.00
2019-02-21T00:44:28.945Z,12.23
2019-02-21T00:46:58.012Z,11.17
2019-02-21T00:49:27.090Z,10.50
2019-02-21T00:51:56.151Z,11.50
2019-02-21T00:54:25.230Z,10.17
2019-02-21T00:56:54.305Z,11.27
2019-02-21T00:59:23.388Z,11.20
2019-02-21T01:01:52.450Z,11.20
2019-02-21T01:04:21.539Z,10.67
2019-02-21T01:06:50.602Z,10.57
2019-02-21T01:09:19.682Z,11.07
2019-02-21T01:11:48.817Z,11.87
2019-02-21T01:14:17.898Z,11.77
2019-02-21T01:16:46.963Z,10.47
2019-02-21T01:19:16.042Z,11.90
2019-02-21T01:21:45.155Z,10.30
2019-02-21T01:24:14.242Z,12.73
2019-02-21T01:26:43.324Z,12.17
2019-02-21T01:29:12.387Z,11.33
2019-02-21T01:31:41.474Z,11.50
2019-02-21T01:34:10.531Z,11.67
2019-02-21T01:36:39.615Z,11.83
2019-02-21T01:39:08.679Z,12.43
2019-02-21T01:41:37.755Z,11.97
2019-02-21T01:44:06.822Z,11.73
2019-02-21T01:46:35.906Z,11.50
2019-02-21T01:49:04.975Z,12.17
2019-02-21T01:51:34.053Z,11.90
2019-02-21T01:54:03.136Z,11.60
2019-02-21T01:56:32.268Z,11.47
2019-02-21T01:59:01.341Z,11.80
2019-02-21T02:01:30.440Z,12.43
2019-02-21T02:03:59.507Z,11.73
2019-02-21T02:06:28.591Z,12.47
2019-02-21T02:08:57.649Z,11.33
2019-02-21T02:11:26.725Z,11.20
2019-02-21T02:13:55.789Z,10.60
2019-02-21T02:16:25.123Z,11.57
2019-02-21T02:18:54.192Z,11.33
2019-02-21T02:21:23.279Z,11.00
2019-02-21T02:23:52.345Z,11.23
2019-02-21T02:26:21.419Z,11.13
2019-02-21T02:28:50.478Z,12.93
2019-02-21T02:31:23.287Z,11.33
2019-02-21T02:33:50.319Z,10.97
2019-02-21T02:36:19.391Z,11.83
2019-02-21T02:38:48.451Z,13.27
2019-02-21T02:41:17.536Z,13.00
2019-02-21T02:43:46.594Z,14.80
2019-02-21T02:46:15.675Z,14.20
2019-02-21T02:48:45.004Z,14.37
2019-02-21T02:51:14.083Z,15.03
2019-02-21T02:53:43.155Z,13.53
2019-02-21T02:56:12.239Z,12.70
2019-02-21T02:58:41.619Z,12.17
2019-02-21T03:01:10.751Z,11.80
2019-02-21T03:03:39.818Z,11.70
2019-02-21T03:06:08.912Z,12.20
2019-02-21T03:08:37.963Z,11.10
2019-02-21T03:11:07.038Z,13.40
2019-02-21T03:13:36.119Z,12.90
2019-02-21T03:16:06.639Z,12.07
2019-02-21T03:18:35.695Z,15.00
2019-02-21T03:21:04.775Z,14.17
2019-02-21T03:23:33.844Z,14.67
2019-02-21T03:26:02.930Z,13.10
2019-02-21T03:28:31.986Z,13.43
2019-02-21T03:31:01.085Z,14.73
2019-02-21T03:33:30.149Z,13.33
2019-02-21T03:35:59.216Z,12.83
2019-02-21T03:38:28.293Z,12.87
2019-02-21T03:40:57.349Z,11.87
2019-02-21T03:43:26.442Z,11.43
2019-02-21T03:45:55.576Z,11.90
2019-02-21T03:48:24.642Z,11.53
2019-02-21T03:50:53.718Z,11.63
2019-02-21T03:53:22.796Z,10.93
2019-02-21T03:55:53.474Z,11.03
2019-02-21T03:58:22.547Z,11.37
2019-02-21T04:00:51.618Z,12.00
2019-02-21T04:03:20.711Z,11.30
2019-02-21T04:05:49.771Z,10.70
2019-02-21T04:08:18.872Z,10.77
2019-02-21T04:10:48.000Z,11.97
2019-02-21T04:13:17.072Z,14.03
2019-02-21T04:15:46.146Z,12.47
2019-02-21T04:18:15.220Z,12.93
2019-02-21T04:20:44.431Z,12.73
2019-02-21T04:23:13.658Z,13.23
2019-02-21T04:25:42.730Z,12.77
2019-02-21T04:28:11.794Z,13.10
2019-02-21T04:30:40.858Z,13.17
2019-02-21T04:33:09.938Z,12.30
2019-02-21T04:35:38.999Z,13.97
2019-02-21T04:38:08.083Z,14.60
2019-02-21T04:40:37.154Z,15.27
2019-02-21T04:43:06.223Z,13.53
2019-02-21T04:45:35.299Z,17.23
2019-02-21T04:48:04.374Z,17.37
2019-02-21T04:50:33.442Z,15.33
2019-02-21T04:53:02.523Z,14.07
2019-02-21T04:55:31.684Z,13.60
2019-02-21T04:58:00.842Z,12.87
2019-02-21T05:00:29.971Z,13.63
2019-02-21T05:02:59.047Z,12.70
2019-02-21T05:05:28.112Z,17.27
2019-02-21T05:07:57.202Z,17.70
2019-02-21T05:10:26.527Z,15.53
2019-02-21T05:12:55.607Z,15.00
2019-02-21T05:15:24.675Z,14.07
2019-02-21T05:17:53.751Z,16.17
2019-02-21T05:20:22.826Z,15.47
2019-02-21T05:22:51.894Z,14.67
2019-02-21T05:25:20.958Z,14.63
2019-02-21T05:27:51.111Z,15.87
2019-02-21T05:30:21.829Z,14.20
2019-02-21T05:32:52.529Z,14.23
2019-02-21T05:35:41.303Z,14.97
2019-02-21T05:38:18.252Z,13.50
2019-02-21T05:40:54.754Z,12.60
2019-02-21T05:43:25.476Z,13.53
2019-02-21T05:46:11.437Z,13.50
2019-02-21T05:48:50.854Z,13.07
2019-02-21T05:51:21.570Z,13.63
2019-02-21T05:53:58.024Z,13.67
2019-02-21T05:56:40.699Z,11.50
2019-02-21T05:59:14.424Z,13.20
2019-02-21T06:01:51.155Z,12.80
2019-02-21T06:04:21.876Z,12.30
2019-02-21T06:06:55.263Z,14.00
2019-02-21T06:09:25.989Z,13.93
2019-02-21T06:12:13.075Z,12.40
2019-02-21T06:14:46.739Z,13.80
2019-02-21T06:17:34.381Z,13.37
2019-02-21T06:20:18.041Z,13.40
2019-02-21T06:22:48.807Z,14.33
2019-02-21T06:25:22.740Z,15.73
2019-02-21T06:27:58.352Z,15.17
2019-02-21T06:30:31.967Z,14.93
2019-02-21T06:33:05.096Z,15.43
2019-02-21T06:35:31.830Z,16.73
2019-02-21T06:38:00.893Z,15.60
2019-02-21T06:40:29.963Z,15.43
2019-02-21T06:42:59.088Z,14.87
2019-02-21T06:45:28.203Z,15.77
2019-02-21T06:47:57.278Z,15.10
2019-02-21T06:50:27.225Z,15.43
2019-02-21T06:52:56.510Z,15.33
2019-02-21T06:55:25.596Z,15.87
2019-02-21T06:57:54.661Z,16.30
2019-02-21T07:00:23.743Z,15.90
2019-02-21T07:02:54.348Z,15.50
2019-02-21T07:05:23.574Z,14.73
2019-02-21T07:07:52.712Z,14.73
2019-02-21T07:10:21.791Z,14.87
2019-02-21T07:12:50.886Z,13.50
2019-02-21T07:15:20.040Z,12.40
2019-02-21T07:17:49.782Z,11.70
2019-02-21T07:20:19.052Z,12.47
2019-02-21T07:22:48.112Z,12.80
2019-02-21T07:25:32.449Z,13.53
2019-02-21T07:28:11.243Z,12.03
2019-02-21T07:30:32.573Z,10.67
2019-02-21T07:33:01.705Z,11.77
2019-02-21T07:35:30.792Z,11.17
2019-02-21T07:37:59.860Z,11.97
2019-02-21T07:40:28.926Z,11.17
2019-02-21T07:42:58.794Z,10.50
2019-02-21T07:45:28.069Z,10.80
2019-02-21T07:47:57.134Z,11.33
2019-02-21T07:50:26.309Z,11.23
2019-02-21T07:53:02.370Z,12.30
2019-02-21T07:55:26.466Z,10.93
2019-02-21T07:57:55.534Z,9.67
2019-02-21T08:00:24.610Z,11.53
2019-02-21T08:02:53.970Z,11.83
2019-02-21T08:05:23.788Z,11.13
2019-02-21T08:07:53.002Z,11.50
2019-02-21T08:10:32.787Z,10.80
2019-02-21T08:12:53.656Z,11.30
2019-02-21T08:15:22.907Z,11.60
2019-02-21T08:17:51.976Z,11.53
2019-02-21T08:20:21.105Z,11.63
2019-02-21T08:22:50.200Z,10.80
2019-02-21T08:25:19.490Z,10.70
2019-02-21T08:27:48.622Z,11.00
2019-02-21T08:30:17.703Z,11.07
2019-02-21T08:33:03.614Z,11.10
2019-02-21T08:35:32.700Z,11.50
2019-02-21T08:38:01.766Z,10.93
2019-02-21T08:40:30.836Z,12.07
2019-02-21T08:42:59.902Z,12.03
2019-02-21T08:45:28.984Z,10.97
2019-02-21T08:47:58.085Z,11.53
2019-02-21T08:50:27.199Z,11.20
2019-02-21T08:52:56.263Z,10.97
2019-02-21T08:55:25.667Z,12.83
2019-02-21T08:57:54.739Z,11.60
2019-02-21T09:00:23.812Z,12.40
2019-02-21T09:02:53.165Z,12.80
2019-02-21T09:05:22.235Z,11.17
2019-02-21T09:07:51.311Z,11.70
2019-02-21T09:10:20.372Z,14.30
2019-02-21T09:12:49.454Z,12.27
2019-02-21T09:15:18.526Z,11.83
2019-02-21T09:17:47.625Z,11.17
2019-02-21T09:20:16.676Z,12.90
2019-02-21T09:22:45.755Z,11.60
2019-02-21T09:25:14.819Z,12.43
2019-02-21T09:27:43.927Z,12.43
2019-02-21T09:30:14.594Z,11.87
2019-02-21T09:32:43.670Z,12.60
2019-02-21T09:35:12.742Z,12.03
2019-02-21T09:37:41.834Z,12.33
2019-02-21T09:40:11.985Z,13.23
2019-02-21T09:42:41.157Z,12.10
2019-02-21T09:45:11.757Z,12.23
2019-02-21T09:47:40.836Z,11.37
2019-02-21T09:50:10.181Z,12.57
2019-02-21T09:52:39.255Z,13.90
2019-02-21T09:55:12.505Z,12.60
2019-02-21T09:57:41.581Z,12.00
2019-02-21T10:00:17.481Z,11.63
2019-02-21T10:02:46.559Z,12.57
2019-02-21T10:05:15.632Z,12.53
2019-02-21T10:07:44.698Z,13.60
2019-02-21T10:10:14.832Z,12.33
2019-02-21T10:12:43.908Z,12.23
2019-02-21T10:15:13.958Z,12.07
2019-02-21T10:17:43.070Z,11.23
2019-02-21T10:20:13.279Z,11.73
2019-02-21T10:22:42.655Z,11.83
2019-02-21T10:25:24.989Z,11.40
2019-02-21T10:27:54.074Z,10.80
2019-02-21T10:30:23.311Z,16.53
2019-02-21T10:32:52.399Z,10.20
2019-02-21T10:35:21.459Z,10.60
2019-02-21T10:37:50.542Z,9.70
2019-02-21T10:40:19.608Z,10.67
2019-02-21T10:42:48.691Z,11.03
2019-02-21T10:45:18.539Z,10.03
2019-02-21T10:47:47.611Z,9.63
2019-02-21T10:50:19.846Z,8.40
2019-02-21T10:52:49.382Z,7.03
2019-02-21T10:55:18.457Z,7.22
2019-02-21T10:57:47.527Z,7.40
2019-02-21T11:00:21.317Z,8.15
2019-02-21T11:02:50.380Z,7.33
2019-02-21T11:05:19.441Z,7.30
2019-02-21T11:07:48.515Z,8.20
2019-02-21T11:10:19.455Z,7.80
2019-02-21T11:12:48.666Z,8.10
2019-02-21T11:15:18.386Z,7.87
2019-02-21T11:17:47.458Z,7.50
2019-02-21T11:20:17.500Z,8.03
2019-02-21T11:22:46.565Z,8.30
2019-02-21T11:25:15.625Z,6.97
2019-02-21T11:27:44.765Z,7.17
2019-02-21T11:30:14.826Z,7.65
2019-02-21T11:32:43.882Z,6.92
2019-02-21T11:35:13.520Z,7.75
2019-02-21T11:37:46.277Z,7.85
2019-02-21T11:40:14.332Z,7.90
2019-02-21T11:42:43.840Z,7.25
2019-02-21T11:45:16.346Z,8.98
2019-02-21T11:47:45.415Z,8.38
2019-02-21T11:50:15.247Z,8.05
2019-02-21T11:52:44.308Z,7.58
2019-02-21T11:55:14.914Z,8.15
2019-02-21T11:57:43.978Z,7.45
2019-02-21T12:00:14.915Z,8.35
2019-02-21T12:02:43.995Z,8.05
2019-02-21T12:05:17.553Z,11.18
2019-02-21T12:07:43.908Z,10.50
2019-02-21T12:10:13.055Z,10.53
2019-02-21T12:12:42.123Z,10.37
2019-02-21T12:15:14.666Z,10.43
2019-02-21T12:17:44.075Z,9.80
2019-02-21T12:20:14.695Z,11.43
2019-02-21T12:22:43.763Z,11.23
2019-02-21T12:25:16.994Z,10.37
2019-02-21T12:27:46.066Z,11.80
2019-02-21T12:30:16.138Z,10.87
2019-02-21T12:32:45.203Z,10.07
2019-02-21T12:35:14.303Z,10.30
2019-02-21T12:37:43.457Z,10.70
2019-02-21T12:40:14.097Z,10.80
2019-02-21T12:42:43.167Z,11.47
2019-02-21T12:45:13.423Z,11.53
2019-02-21T12:47:50.885Z,11.97
2019-02-21T12:50:13.712Z,11.53
2019-02-21T12:52:42.784Z,11.87
2019-02-21T12:55:11.869Z,11.83
2019-02-21T12:57:40.927Z,10.93
2019-02-21T13:00:16.919Z,11.10
2019-02-21T13:02:45.988Z,12.47
2019-02-21T13:05:15.064Z,12.43
2019-02-21T13:07:44.151Z,11.97
2019-02-21T13:10:23.530Z,11.67
2019-02-21T13:12:52.603Z,11.90
2019-02-21T13:15:21.674Z,10.50
2019-02-21T13:17:51.199Z,11.53
2019-02-21T13:20:20.651Z,11.40
2019-02-21T13:22:49.862Z,11.77
2019-02-21T13:25:19.193Z,12.17
2019-02-21T13:27:48.307Z,12.57
2019-02-21T13:30:17.950Z,11.67
2019-02-21T13:32:47.007Z,10.30
2019-02-21T13:35:16.075Z,11.30
2019-02-21T13:37:45.147Z,11.27
2019-02-21T13:40:17.090Z,10.83
2019-02-21T13:42:46.154Z,10.70
2019-02-21T13:45:17.630Z,11.60
2019-02-21T13:47:46.558Z,10.23
2019-02-21T13:50:16.426Z,9.97
2019-02-21T13:52:45.493Z,9.60
2019-02-21T13:55:14.560Z,9.47
2019-02-21T13:57:43.622Z,9.93
2019-02-21T14:00:14.246Z,10.30
2019-02-21T14:02:43.315Z,9.47
2019-02-21T14:05:12.427Z,10.53
2019-02-21T14:07:41.487Z,9.60
2019-02-21T14:10:12.116Z,8.77
2019-02-21T14:12:41.251Z,8.80
2019-02-21T14:15:17.557Z,8.83
2019-02-21T14:17:46.874Z,9.27
2019-02-21T14:20:16.066Z,9.03
2019-02-21T14:22:45.139Z,8.87
2019-02-21T14:25:14.212Z,8.90
2019-02-21T14:27:43.279Z,9.00
2019-02-21T14:30:13.876Z,9.17
2019-02-21T14:32:42.951Z,8.70
2019-02-21T14:35:12.792Z,8.77
2019-02-21T14:37:41.949Z,9.83
2019-02-21T14:40:11.486Z,7.93
2019-02-21T14:42:40.578Z,8.17
2019-02-21T14:45:12.506Z,9.07
2019-02-21T14:47:41.764Z,7.77
2019-02-21T14:50:11.759Z,8.53
2019-02-21T14:52:40.838Z,8.77
2019-02-21T14:55:11.272Z,9.40
2019-02-21T14:57:41.346Z,7.77
2019-02-21T15:00:23.081Z,7.10
2019-02-21T15:02:52.151Z,6.47
2019-02-21T15:05:21.220Z,7.27
2019-02-21T15:07:50.363Z,7.10
2019-02-21T15:10:19.434Z,8.80
2019-02-21T15:12:48.516Z,8.30
2019-02-21T15:15:21.757Z,7.60
2019-02-21T15:17:49.886Z,7.43
2019-02-21T15:20:18.951Z,9.20
2019-02-21T15:22:48.027Z,8.77
2019-02-21T15:25:17.106Z,8.20
2019-02-21T15:27:46.249Z,9.53
2019-02-21T15:30:20.194Z,10.10
2019-02-21T15:32:49.280Z,9.40
2019-02-21T15:35:19.412Z,9.73
2019-02-21T15:37:48.787Z,8.80
2019-02-21T15:40:17.868Z,10.70
2019-02-21T15:42:46.947Z,8.53
2019-02-21T15:45:24.245Z,8.97
2019-02-21T15:47:53.785Z,9.40
2019-02-21T15:50:22.975Z,8.90
2019-02-21T15:52:52.919Z,9.10
2019-02-21T15:55:22.356Z,9.00
2019-02-21T15:58:02.691Z,9.53
2019-02-21T16:00:23.739Z,9.10
2019-02-21T16:02:52.806Z,10.03
2019-02-21T16:05:21.879Z,9.87
2019-02-21T16:07:50.998Z,9.60
2019-02-21T16:10:23.705Z,9.20
2019-02-21T16:12:53.357Z,9.43
2019-02-21T16:15:22.538Z,9.17
2019-02-21T16:17:51.682Z,9.57
2019-02-21T16:20:21.397Z,10.50
2019-02-21T16:22:50.475Z,8.87
2019-02-21T16:25:27.098Z,9.37
2019-02-21T16:27:56.186Z,11.97
2019-02-21T16:30:25.256Z,10.07
2019-02-21T16:32:54.406Z,11.00
2019-02-21T16:35:23.527Z,9.97
2019-02-21T16:37:52.594Z,10.23
2019-02-21T16:40:21.750Z,11.13
2019-02-21T16:42:50.818Z,11.07
2019-02-21T16:45:20.565Z,12.13
2019-02-21T16:47:49.630Z,12.10
2019-02-21T16:50:29.333Z,13.00
2019-02-21T16:52:49.651Z,12.23
2019-02-21T16:55:21.793Z,9.00
2019-02-21T16:57:50.865Z,9.47
2019-02-21T17:00:20.414Z,9.70
2019-02-21T17:02:49.470Z,9.50
2019-02-21T17:05:18.556Z,10.37
2019-02-21T17:07:47.619Z,11.20
2019-02-21T17:10:17.045Z,10.97
2019-02-21T17:12:46.121Z,10.90
2019-02-21T17:15:18.124Z,10.63
2019-02-21T17:17:47.187Z,10.97
2019-02-21T17:20:17.147Z,11.33
2019-02-21T17:22:46.575Z,11.43
2019-02-21T17:25:15.823Z,11.23
2019-02-21T17:27:45.164Z,10.77
2019-02-21T17:30:15.124Z,11.27
2019-02-21T17:32:44.193Z,10.93
2019-02-21T17:35:13.644Z,15.43
2019-02-21T17:37:42.719Z,13.87
2019-02-21T17:40:19.009Z,14.30
2019-02-21T17:42:48.073Z,17.57
2019-02-21T17:45:17.160Z,15.93
2019-02-21T17:47:46.222Z,16.60
2019-02-21T17:50:16.291Z,16.33
2019-02-21T17:52:45.419Z,14.23
2019-02-21T17:55:15.061Z,15.93
2019-02-21T17:57:44.122Z,14.23
2019-02-21T18:00:17.000Z,12.97
2019-02-21T18:02:45.330Z,13.07
2019-02-21T18:05:14.413Z,13.73
2019-02-21T18:07:43.471Z,13.03
2019-02-21T18:10:13.782Z,12.57
2019-02-21T18:12:42.858Z,10.80
2019-02-21T18:15:13.488Z,11.60
2019-02-21T18:17:42.557Z,12.70
2019-02-21T18:20:12.404Z,12.33
2019-02-21T18:22:41.474Z,11.07
2019-02-21T18:25:11.927Z,21.53
2019-02-21T18:27:41.434Z,12.73
2019-02-21T18:30:16.999Z,12.90
2019-02-21T18:32:46.089Z,12.30
2019-02-21T18:35:15.168Z,13.20
2019-02-21T18:37:47.308Z,12.03
2019-02-21T18:40:20.774Z,12.20
2019-02-21T18:42:50.242Z,13.83
2019-02-21T18:45:19.387Z,12.70
2019-02-21T18:47:48.539Z,17.97
2019-02-21T18:50:18.110Z,17.97
2019-02-21T18:52:47.187Z,10.67
2019-02-21T18:55:16.386Z,11.03
2019-02-21T18:57:45.456Z,10.77
2019-02-21T19:00:16.786Z,11.57
2019-02-21T19:02:45.898Z,10.50
2019-02-21T19:05:15.106Z,10.90
2019-02-21T19:07:44.212Z,11.17
2019-02-21T19:10:14.678Z,11.57
2019-02-21T19:12:43.767Z,10.60
2019-02-21T19:15:13.415Z,10.30
2019-02-21T19:17:42.480Z,9.83
2019-02-21T19:20:12.584Z,11.80
2019-02-21T19:22:41.701Z,11.53
2019-02-21T19:25:11.138Z,10.20
2019-02-21T19:27:40.260Z,10.17
2019-02-21T19:30:13.879Z,9.93
2019-02-21T19:32:43.013Z,11.97
2019-02-21T19:35:12.070Z,9.57
2019-02-21T19:37:41.322Z,10.03
2019-02-21T19:40:10.651Z,10.37
2019-02-21T19:42:39.726Z,9.93
2019-02-21T19:45:09.067Z,10.37
2019-02-21T19:47:38.211Z,10.63
2019-02-21T19:50:09.996Z,11.10
2019-02-21T19:52:39.243Z,9.87
2019-02-21T19:55:09.187Z,10.17
2019-02-21T19:57:38.255Z,10.23
2019-02-21T20:00:09.054Z,9.90
2019-02-21T20:02:38.128Z,10.47
2019-02-21T20:05:07.191Z,10.83
2019-02-21T20:07:36.268Z,11.43
2019-02-21T20:10:06.309Z,11.23
2019-02-21T20:12:35.378Z,11.53
2019-02-21T20:15:08.490Z,11.37
2019-02-21T20:17:37.571Z,11.93
2019-02-21T20:20:14.347Z,11.37
2019-02-21T20:22:43.425Z,11.07
2019-02-21T20:25:12.483Z,11.20
2019-02-21T20:27:41.603Z,10.57
2019-02-21T20:30:12.210Z,10.77
2019-02-21T20:32:41.282Z,10.30
2019-02-21T20:35:10.414Z,9.90
2019-02-21T20:37:39.503Z,11.93
2019-02-21T20:40:08.847Z,12.63
2019-02-21T20:42:37.922Z,10.60
2019-02-21T20:45:08.536Z,11.53
2019-02-21T20:47:37.612Z,10.83
2019-02-21T20:50:08.035Z,11.10
2019-02-21T20:52:37.116Z,11.30
2019-02-21T20:55:06.751Z,12.03
2019-02-21T20:57:35.824Z,12.13
2019-02-21T21:00:06.432Z,11.03
2019-02-21T21:02:35.511Z,11.43
2019-02-21T21:05:04.570Z,11.67
2019-02-21T21:07:33.641Z,9.70
2019-02-21T21:10:02.706Z,10.83
2019-02-21T21:12:31.786Z,10.60
2019-02-21T21:15:00.853Z,11.13
2019-02-21T21:17:29.927Z,10.20
2019-02-21T21:19:58.992Z,10.67
2019-02-21T21:22:28.078Z,11.07
2019-02-21T21:24:57.154Z,11.27
2019-02-21T21:27:26.226Z,10.43
2019-02-21T21:29:55.286Z,10.07
2019-02-21T21:32:24.366Z,11.63
2019-02-21T21:34:53.429Z,11.07
2019-02-21T21:37:22.502Z,10.83
2019-02-21T21:39:51.567Z,11.10
2019-02-21T21:42:20.643Z,11.80
2019-02-21T21:44:49.707Z,12.60
2019-02-21T21:47:18.780Z,12.33
2019-02-21T21:49:47.857Z,13.40
2019-02-21T21:52:16.914Z,11.07
2019-02-21T21:54:45.988Z,11.47
2019-02-21T21:57:15.060Z,11.30
2019-02-21T21:59:44.131Z,10.53
2019-02-21T22:02:13.227Z,11.43
2019-02-21T22:04:42.315Z,11.90
2019-02-21T22:07:11.366Z,12.93
2019-02-21T22:09:40.444Z,11.43
2019-02-21T22:12:09.511Z,12.87
2019-02-21T22:14:38.598Z,13.27
2019-02-21T22:17:07.733Z,13.40
2019-02-21T22:19:36.811Z,12.57
2019-02-21T22:22:05.879Z,12.47
2019-02-21T22:24:34.956Z,12.17
2019-02-21T22:27:04.023Z,13.67
2019-02-21T22:29:33.095Z,13.17
2019-02-21T22:32:02.177Z,12.43
2019-02-21T22:34:31.255Z,12.73
2019-02-21T22:37:00.323Z,13.83
2019-02-21T22:39:29.410Z,13.47
2019-02-21T22:41:58.474Z,12.40
2019-02-21T22:44:27.559Z,13.20
2019-02-21T22:46:56.626Z,13.33
2019-02-21T22:49:25.706Z,13.40
2019-02-21T22:51:54.766Z,14.10
2019-02-21T22:54:23.842Z,13.20
2019-02-21T22:56:53.214Z,13.53
2019-02-21T22:59:22.300Z,13.13
2019-02-21T23:01:52.031Z,13.93
2019-02-21T23:04:22.750Z,13.10
2019-02-21T23:06:53.378Z,13.57
2019-02-21T23:09:27.678Z,14.03
2019-02-21T23:11:54.966Z,12.40
2019-02-21T23:14:24.050Z,12.80
2019-02-21T23:16:53.121Z,14.20
2019-02-21T23:19:24.140Z,13.63
2019-02-21T23:21:53.122Z,13.53
2019-02-21T23:24:22.191Z,13.90
2019-02-21T23:26:51.255Z,13.20
2019-02-21T23:29:20.330Z,13.67
2019-02-21T23:31:49.403Z,12.93
2019-02-21T23:34:20.118Z,14.60
2019-02-21T23:36:49.178Z,12.97
2019-02-21T23:39:18.255Z,14.10
2019-02-21T23:41:47.315Z,14.40
2019-02-21T23:44:16.392Z,14.10
2019-02-21T23:46:45.449Z,14.10
2019-02-21T23:49:14.534Z,14.63
2019-02-21T23:51:43.608Z,14.57
2019-02-21T23:54:12.769Z,14.40
2019-02-21T23:56:41.902Z,13.90
2019-02-21T23:59:10.996Z,13.53
